sensor_id;sensor_type;location;lat;lon;timestamp;P1;durP1;ratioP1;P2;durP2;ratioP2
23304;SDS011;11821;51.456;8.844;2023-05-10T00:01:03;6.20;;;5.60;;
23304;SDS011;11821;51.456;8.844;2023-05-10T00:03:30;7.82;;;5.13;;
23304;SDS011;11821;51.456;8.844;2023-05-10T00:05:56;5.63;;;4.72;;
23304;SDS011;11821;51.456;8.844;2023-05-10T00:08:23;6.22;;;5.65;;
23304;SDS011;11821;51.456;8.844;2023-05-10T00:10:49;5.72;;;5.18;;
23304;SDS011;11821;51.456;8.844;2023-05-10T00:13:15;6.50;;;6.00;;
23304;SDS011;11821;51.456;8.844;2023-05-10T00:15:42;7.10;;;6.47;;
23304;SDS011;11821;51.456;8.844;2023-05-10T00:18:08;6.57;;;5.90;;
23304;SDS011;11821;51.456;8.844;2023-05-10T00:20:34;6.90;;;6.30;;
23304;SDS011;11821;51.456;8.844;2023-05-10T00:23:00;7.13;;;6.53;;
23304;SDS011;11821;51.456;8.844;2023-05-10T00:25:27;7.47;;;6.88;;
23304;SDS011;11821;51.456;8.844;2023-05-10T00:27:53;6.80;;;6.10;;
23304;SDS011;11821;51.456;8.844;2023-05-10T00:30:20;6.93;;;6.32;;
23304;SDS011;11821;51.456;8.844;2023-05-10T00:32:47;6.57;;;6.07;;
23304;SDS011;11821;51.456;8.844;2023-05-10T00:35:15;6.65;;;5.50;;
23304;SDS011;11821;51.456;8.844;2023-05-10T00:37:41;7.00;;;6.32;;
23304;SDS011;11821;51.456;8.844;2023-05-10T00:40:08;6.90;;;6.30;;
23304;SDS011;11821;51.456;8.844;2023-05-10T00:42:34;6.20;;;5.70;;
23304;SDS011;11821;51.456;8.844;2023-05-10T00:45:01;6.40;;;5.90;;
23304;SDS011;11821;51.456;8.844;2023-05-10T00:47:27;6.88;;;5.65;;
23304;SDS011;11821;51.456;8.844;2023-05-10T00:49:55;5.97;;;5.45;;
23304;SDS011;11821;51.456;8.844;2023-05-10T00:52:22;6.80;;;6.13;;
23304;SDS011;11821;51.456;8.844;2023-05-10T00:54:50;6.65;;;6.05;;
23304;SDS011;11821;51.456;8.844;2023-05-10T00:57:17;6.90;;;6.30;;
23304;SDS011;11821;51.456;8.844;2023-05-10T00:59:44;6.00;;;5.43;;
23304;SDS011;11821;51.456;8.844;2023-05-10T01:02:11;7.22;;;6.63;;
23304;SDS011;11821;51.456;8.844;2023-05-10T01:04:38;6.25;;;5.80;;
23304;SDS011;11821;51.456;8.844;2023-05-10T01:07:05;7.13;;;6.53;;
23304;SDS011;11821;51.456;8.844;2023-05-10T01:09:31;9.32;;;6.75;;
23304;SDS011;11821;51.456;8.844;2023-05-10T01:11:58;6.53;;;6.00;;
23304;SDS011;11821;51.456;8.844;2023-05-10T01:14:26;6.90;;;6.25;;
23304;SDS011;11821;51.456;8.844;2023-05-10T01:16:53;7.38;;;6.78;;
23304;SDS011;11821;51.456;8.844;2023-05-10T01:19:24;7.80;;;7.00;;
23304;SDS011;11821;51.456;8.844;2023-05-10T01:37:42;7.35;;;6.65;;
23304;SDS011;11821;51.456;8.844;2023-05-10T01:42:53;8.20;;;7.47;;
23304;SDS011;11821;51.456;8.844;2023-05-10T01:45:39;8.27;;;7.47;;
23304;SDS011;11821;51.456;8.844;2023-05-10T01:48:13;9.23;;;7.78;;
23304;SDS011;11821;51.456;8.844;2023-05-10T01:50:41;7.60;;;7.00;;
23304;SDS011;11821;51.456;8.844;2023-05-10T01:53:11;7.65;;;6.90;;
23304;SDS011;11821;51.456;8.844;2023-05-10T01:55:49;7.78;;;7.07;;
23304;SDS011;11821;51.456;8.844;2023-05-10T01:58:20;3.92;;;3.63;;
23304;SDS011;11821;51.456;8.844;2023-05-10T02:00:51;3.33;;;3.13;;
23304;SDS011;11821;51.456;8.844;2023-05-10T02:03:23;2.58;;;2.38;;
23304;SDS011;11821;51.456;8.844;2023-05-10T02:05:50;3.42;;;2.95;;
23304;SDS011;11821;51.456;8.844;2023-05-10T02:08:21;2.13;;;2.00;;
23304;SDS011;11821;51.456;8.844;2023-05-10T02:10:49;6.57;;;2.20;;
23304;SDS011;11821;51.456;8.844;2023-05-10T02:13:18;2.10;;;1.75;;
23304;SDS011;11821;51.456;8.844;2023-05-10T02:15:46;1.67;;;1.58;;
23304;SDS011;11821;51.456;8.844;2023-05-10T02:18:14;1.30;;;1.20;;
23304;SDS011;11821;51.456;8.844;2023-05-10T02:20:42;2.92;;;1.20;;
23304;SDS011;11821;51.456;8.844;2023-05-10T02:23:11;2.03;;;0.98;;
23304;SDS011;11821;51.456;8.844;2023-05-10T02:25:38;1.08;;;0.93;;
23304;SDS011;11821;51.456;8.844;2023-05-10T02:28:05;2.05;;;0.70;;
23304;SDS011;11821;51.456;8.844;2023-05-10T02:30:35;1.52;;;0.55;;
23304;SDS011;11821;51.456;8.844;2023-05-10T02:33:02;0.65;;;0.50;;
23304;SDS011;11821;51.456;8.844;2023-05-10T02:35:30;4.75;;;0.98;;
23304;SDS011;11821;51.456;8.844;2023-05-10T02:37:59;0.50;;;0.43;;
23304;SDS011;11821;51.456;8.844;2023-05-10T02:40:26;0.38;;;0.38;;
23304;SDS011;11821;51.456;8.844;2023-05-10T02:42:55;0.73;;;0.30;;
23304;SDS011;11821;51.456;8.844;2023-05-10T02:45:25;0.63;;;0.40;;
23304;SDS011;11821;51.456;8.844;2023-05-10T02:47:54;0.30;;;0.30;;
23304;SDS011;11821;51.456;8.844;2023-05-10T02:50:22;4.00;;;0.50;;
23304;SDS011;11821;51.456;8.844;2023-05-10T02:52:54;0.40;;;0.28;;
23304;SDS011;11821;51.456;8.844;2023-05-10T02:55:32;0.50;;;0.30;;
23304;SDS011;11821;51.456;8.844;2023-05-10T02:58:02;0.40;;;0.40;;
23304;SDS011;11821;51.456;8.844;2023-05-10T03:00:29;1.85;;;0.30;;
23304;SDS011;11821;51.456;8.844;2023-05-10T03:02:56;1.38;;;0.30;;
23304;SDS011;11821;51.456;8.844;2023-05-10T03:05:23;0.52;;;0.40;;
23304;SDS011;11821;51.456;8.844;2023-05-10T03:07:49;0.30;;;0.30;;
23304;SDS011;11821;51.456;8.844;2023-05-10T03:10:17;0.30;;;0.25;;
23304;SDS011;11821;51.456;8.844;2023-05-10T03:12:51;0.90;;;0.38;;
23304;SDS011;11821;51.456;8.844;2023-05-10T03:15:59;0.22;;;0.22;;
23304;SDS011;11821;51.456;8.844;2023-05-10T03:18:46;0.43;;;0.20;;
23304;SDS011;11821;51.456;8.844;2023-05-10T03:21:20;0.20;;;0.20;;
23304;SDS011;11821;51.456;8.844;2023-05-10T03:26:26;0.75;;;0.35;;
23304;SDS011;11821;51.456;8.844;2023-05-10T03:29:02;0.30;;;0.30;;
23304;SDS011;11821;51.456;8.844;2023-05-10T03:31:30;1.85;;;0.40;;
23304;SDS011;11821;51.456;8.844;2023-05-10T03:33:57;0.20;;;0.20;;
23304;SDS011;11821;51.456;8.844;2023-05-10T03:36:26;0.82;;;0.50;;
23304;SDS011;11821;51.456;8.844;2023-05-10T03:38:53;0.30;;;0.30;;
23304;SDS011;11821;51.456;8.844;2023-05-10T03:41:20;0.28;;;0.20;;
23304;SDS011;11821;51.456;8.844;2023-05-10T03:43:47;1.35;;;0.30;;
23304;SDS011;11821;51.456;8.844;2023-05-10T03:46:13;0.60;;;0.40;;
23304;SDS011;11821;51.456;8.844;2023-05-10T03:48:40;2.60;;;0.20;;
23304;SDS011;11821;51.456;8.844;2023-05-10T03:51:06;0.43;;;0.30;;
23304;SDS011;11821;51.456;8.844;2023-05-10T03:53:33;0.40;;;0.40;;
23304;SDS011;11821;51.456;8.844;2023-05-10T03:55:59;2.15;;;0.40;;
23304;SDS011;11821;51.456;8.844;2023-05-10T03:58:26;0.20;;;0.20;;
23304;SDS011;11821;51.456;8.844;2023-05-10T04:00:52;0.40;;;0.30;;
23304;SDS011;11821;51.456;8.844;2023-05-10T04:03:19;0.70;;;0.60;;
23304;SDS011;11821;51.456;8.844;2023-05-10T04:05:46;0.30;;;0.30;;
23304;SDS011;11821;51.456;8.844;2023-05-10T04:08:12;0.90;;;0.20;;
23304;SDS011;11821;51.456;8.844;2023-05-10T04:10:38;0.52;;;0.50;;
23304;SDS011;11821;51.456;8.844;2023-05-10T04:13:05;0.68;;;0.52;;
23304;SDS011;11821;51.456;8.844;2023-05-10T04:15:31;0.40;;;0.40;;
23304;SDS011;11821;51.456;8.844;2023-05-10T04:17:57;0.40;;;0.40;;
23304;SDS011;11821;51.456;8.844;2023-05-10T04:20:24;0.90;;;0.30;;
23304;SDS011;11821;51.456;8.844;2023-05-10T04:22:50;0.43;;;0.30;;
23304;SDS011;11821;51.456;8.844;2023-05-10T04:25:16;0.98;;;0.35;;
23304;SDS011;11821;51.456;8.844;2023-05-10T04:27:43;0.95;;;0.43;;
23304;SDS011;11821;51.456;8.844;2023-05-10T04:30:09;1.20;;;0.55;;
23304;SDS011;11821;51.456;8.844;2023-05-10T04:32:36;1.10;;;0.77;;
23304;SDS011;11821;51.456;8.844;2023-05-10T04:35:03;0.60;;;0.35;;
23304;SDS011;11821;51.456;8.844;2023-05-10T04:37:30;0.30;;;0.30;;
23304;SDS011;11821;51.456;8.844;2023-05-10T04:39:56;2.75;;;0.45;;
23304;SDS011;11821;51.456;8.844;2023-05-10T04:42:25;1.42;;;0.40;;
23304;SDS011;11821;51.456;8.844;2023-05-10T04:44:51;0.80;;;0.57;;
23304;SDS011;11821;51.456;8.844;2023-05-10T04:47:18;0.65;;;0.65;;
23304;SDS011;11821;51.456;8.844;2023-05-10T04:49:45;0.50;;;0.50;;
23304;SDS011;11821;51.456;8.844;2023-05-10T04:52:11;3.33;;;0.80;;
23304;SDS011;11821;51.456;8.844;2023-05-10T04:54:38;1.15;;;0.60;;
23304;SDS011;11821;51.456;8.844;2023-05-10T04:57:04;3.03;;;0.60;;
23304;SDS011;11821;51.456;8.844;2023-05-10T04:59:31;0.63;;;0.50;;
23304;SDS011;11821;51.456;8.844;2023-05-10T05:01:57;1.23;;;0.55;;
23304;SDS011;11821;51.456;8.844;2023-05-10T05:04:23;3.22;;;0.50;;
23304;SDS011;11821;51.456;8.844;2023-05-10T05:06:50;0.55;;;0.40;;
23304;SDS011;11821;51.456;8.844;2023-05-10T05:09:17;0.70;;;0.60;;
23304;SDS011;11821;51.456;8.844;2023-05-10T05:11:43;1.27;;;0.63;;
23304;SDS011;11821;51.456;8.844;2023-05-10T05:14:10;1.33;;;0.35;;
23304;SDS011;11821;51.456;8.844;2023-05-10T05:16:36;0.50;;;0.47;;
23304;SDS011;11821;51.456;8.844;2023-05-10T05:19:03;0.40;;;0.40;;
23304;SDS011;11821;51.456;8.844;2023-05-10T05:21:29;0.30;;;0.30;;
23304;SDS011;11821;51.456;8.844;2023-05-10T05:23:57;2.25;;;0.40;;
23304;SDS011;11821;51.456;8.844;2023-05-10T05:26:24;0.75;;;0.40;;
23304;SDS011;11821;51.456;8.844;2023-05-10T05:28:50;0.30;;;0.20;;
23304;SDS011;11821;51.456;8.844;2023-05-10T05:31:19;0.50;;;0.30;;
23304;SDS011;11821;51.456;8.844;2023-05-10T05:33:46;1.17;;;0.45;;
23304;SDS011;11821;51.456;8.844;2023-05-10T05:36:12;1.83;;;0.30;;
23304;SDS011;11821;51.456;8.844;2023-05-10T05:38:39;0.60;;;0.40;;
23304;SDS011;11821;51.456;8.844;2023-05-10T05:41:05;0.40;;;0.40;;
23304;SDS011;11821;51.456;8.844;2023-05-10T05:43:32;1.48;;;0.47;;
23304;SDS011;11821;51.456;8.844;2023-05-10T05:45:58;0.73;;;0.38;;
23304;SDS011;11821;51.456;8.844;2023-05-10T05:48:25;1.45;;;0.30;;
23304;SDS011;11821;51.456;8.844;2023-05-10T05:50:55;0.43;;;0.20;;
23304;SDS011;11821;51.456;8.844;2023-05-10T05:53:24;0.38;;;0.20;;
23304;SDS011;11821;51.456;8.844;2023-05-10T05:55:54;1.05;;;0.50;;
23304;SDS011;11821;51.456;8.844;2023-05-10T05:58:22;0.60;;;0.30;;
23304;SDS011;11821;51.456;8.844;2023-05-10T06:00:48;3.17;;;0.30;;
23304;SDS011;11821;51.456;8.844;2023-05-10T06:03:15;0.47;;;0.25;;
23304;SDS011;11821;51.456;8.844;2023-05-10T06:05:41;1.50;;;0.20;;
23304;SDS011;11821;51.456;8.844;2023-05-10T06:08:08;3.10;;;0.35;;
23304;SDS011;11821;51.456;8.844;2023-05-10T06:10:34;0.63;;;0.20;;
23304;SDS011;11821;51.456;8.844;2023-05-10T06:13:01;0.80;;;0.20;;
23304;SDS011;11821;51.456;8.844;2023-05-10T06:15:28;3.78;;;0.40;;
23304;SDS011;11821;51.456;8.844;2023-05-10T06:17:54;0.68;;;0.30;;
23304;SDS011;11821;51.456;8.844;2023-05-10T06:20:21;1.35;;;0.22;;
23304;SDS011;11821;51.456;8.844;2023-05-10T06:22:47;2.10;;;0.45;;
23304;SDS011;11821;51.456;8.844;2023-05-10T06:25:13;1.73;;;0.20;;
23304;SDS011;11821;51.456;8.844;2023-05-10T06:27:40;0.55;;;0.30;;
23304;SDS011;11821;51.456;8.844;2023-05-10T06:30:06;1.90;;;0.40;;
23304;SDS011;11821;51.456;8.844;2023-05-10T06:32:34;0.68;;;0.30;;
23304;SDS011;11821;51.456;8.844;2023-05-10T06:35:00;0.95;;;0.50;;
23304;SDS011;11821;51.456;8.844;2023-05-10T06:37:27;0.68;;;0.30;;
23304;SDS011;11821;51.456;8.844;2023-05-10T06:39:53;2.03;;;0.50;;
23304;SDS011;11821;51.456;8.844;2023-05-10T06:42:19;0.52;;;0.30;;
23304;SDS011;11821;51.456;8.844;2023-05-10T06:44:46;0.30;;;0.30;;
23304;SDS011;11821;51.456;8.844;2023-05-10T06:47:12;2.03;;;0.43;;
23304;SDS011;11821;51.456;8.844;2023-05-10T06:49:38;0.55;;;0.45;;
23304;SDS011;11821;51.456;8.844;2023-05-10T06:52:05;1.13;;;0.47;;
23304;SDS011;11821;51.456;8.844;2023-05-10T06:54:31;0.30;;;0.30;;
23304;SDS011;11821;51.456;8.844;2023-05-10T06:56:58;0.40;;;0.35;;
23304;SDS011;11821;51.456;8.844;2023-05-10T06:59:24;0.52;;;0.30;;
23304;SDS011;11821;51.456;8.844;2023-05-10T07:01:51;1.48;;;0.32;;
23304;SDS011;11821;51.456;8.844;2023-05-10T07:04:17;1.58;;;0.47;;
23304;SDS011;11821;51.456;8.844;2023-05-10T07:06:43;0.43;;;0.20;;
23304;SDS011;11821;51.456;8.844;2023-05-10T07:09:11;1.27;;;0.52;;
23304;SDS011;11821;51.456;8.844;2023-05-10T07:11:39;1.27;;;0.47;;
23304;SDS011;11821;51.456;8.844;2023-05-10T07:14:05;0.50;;;0.50;;
23304;SDS011;11821;51.456;8.844;2023-05-10T07:16:31;2.33;;;0.40;;
23304;SDS011;11821;51.456;8.844;2023-05-10T07:18:58;2.25;;;0.40;;
23304;SDS011;11821;51.456;8.844;2023-05-10T07:21:24;4.05;;;0.73;;
23304;SDS011;11821;51.456;8.844;2023-05-10T07:23:54;0.30;;;0.30;;
23304;SDS011;11821;51.456;8.844;2023-05-10T07:26:20;0.60;;;0.32;;
23304;SDS011;11821;51.456;8.844;2023-05-10T07:28:46;0.45;;;0.40;;
23304;SDS011;11821;51.456;8.844;2023-05-10T07:31:13;0.55;;;0.40;;
23304;SDS011;11821;51.456;8.844;2023-05-10T07:33:39;2.35;;;0.60;;
23304;SDS011;11821;51.456;8.844;2023-05-10T07:36:06;1.73;;;0.68;;
23304;SDS011;11821;51.456;8.844;2023-05-10T07:38:32;0.90;;;0.68;;
23304;SDS011;11821;51.456;8.844;2023-05-10T07:40:58;1.20;;;1.10;;
23304;SDS011;11821;51.456;8.844;2023-05-10T07:43:25;2.00;;;1.80;;
23304;SDS011;11821;51.456;8.844;2023-05-10T07:45:51;3.13;;;1.98;;
23304;SDS011;11821;51.456;8.844;2023-05-10T07:48:17;3.25;;;2.15;;
23304;SDS011;11821;51.456;8.844;2023-05-10T07:50:44;2.50;;;2.30;;
23304;SDS011;11821;51.456;8.844;2023-05-10T07:53:10;4.15;;;3.05;;
23304;SDS011;11821;51.456;8.844;2023-05-10T07:55:36;3.40;;;3.00;;
23304;SDS011;11821;51.456;8.844;2023-05-10T07:58:03;3.03;;;2.83;;
23304;SDS011;11821;51.456;8.844;2023-05-10T08:00:29;4.03;;;3.40;;
23304;SDS011;11821;51.456;8.844;2023-05-10T08:02:55;6.05;;;4.10;;
23304;SDS011;11821;51.456;8.844;2023-05-10T08:05:22;5.80;;;4.55;;
23304;SDS011;11821;51.456;8.844;2023-05-10T08:07:48;4.93;;;3.85;;
23304;SDS011;11821;51.456;8.844;2023-05-10T08:10:14;4.43;;;4.05;;
23304;SDS011;11821;51.456;8.844;2023-05-10T08:12:41;5.57;;;5.07;;
23304;SDS011;11821;51.456;8.844;2023-05-10T08:15:07;5.65;;;5.13;;
23304;SDS011;11821;51.456;8.844;2023-05-10T08:17:34;5.68;;;5.10;;
23304;SDS011;11821;51.456;8.844;2023-05-10T08:20:00;4.95;;;4.43;;
23304;SDS011;11821;51.456;8.844;2023-05-10T08:22:27;5.68;;;4.80;;
23304;SDS011;11821;51.456;8.844;2023-05-10T08:24:53;5.35;;;4.80;;
23304;SDS011;11821;51.456;8.844;2023-05-10T08:27:19;4.10;;;3.80;;
23304;SDS011;11821;51.456;8.844;2023-05-10T08:29:45;8.60;;;7.90;;
23304;SDS011;11821;51.456;8.844;2023-05-10T08:32:12;4.57;;;3.80;;
23304;SDS011;11821;51.456;8.844;2023-05-10T08:34:38;4.10;;;3.55;;
23304;SDS011;11821;51.456;8.844;2023-05-10T08:37:04;4.35;;;4.00;;
23304;SDS011;11821;51.456;8.844;2023-05-10T08:39:33;4.80;;;3.75;;
23304;SDS011;11821;51.456;8.844;2023-05-10T08:42:01;4.30;;;3.90;;
23304;SDS011;11821;51.456;8.844;2023-05-10T08:44:33;6.72;;;4.18;;
23304;SDS011;11821;51.456;8.844;2023-05-10T08:47:02;5.47;;;4.97;;
23304;SDS011;11821;51.456;8.844;2023-05-10T08:49:32;7.47;;;6.80;;
23304;SDS011;11821;51.456;8.844;2023-05-10T08:51:59;4.68;;;3.95;;
23304;SDS011;11821;51.456;8.844;2023-05-10T08:54:26;4.80;;;3.90;;
23304;SDS011;11821;51.456;8.844;2023-05-10T08:56:53;3.95;;;3.65;;
23304;SDS011;11821;51.456;8.844;2023-05-10T08:59:20;4.57;;;4.18;;
23304;SDS011;11821;51.456;8.844;2023-05-10T09:01:47;3.95;;;3.60;;
23304;SDS011;11821;51.456;8.844;2023-05-10T09:04:14;3.47;;;3.13;;
23304;SDS011;11821;51.456;8.844;2023-05-10T09:06:41;3.95;;;3.65;;
23304;SDS011;11821;51.456;8.844;2023-05-10T09:09:07;5.63;;;5.13;;
23304;SDS011;11821;51.456;8.844;2023-05-10T09:11:34;5.75;;;5.35;;
23304;SDS011;11821;51.456;8.844;2023-05-10T09:14:01;6.28;;;5.68;;
23304;SDS011;11821;51.456;8.844;2023-05-10T09:16:28;6.68;;;6.00;;
23304;SDS011;11821;51.456;8.844;2023-05-10T09:18:54;7.15;;;6.43;;
23304;SDS011;11821;51.456;8.844;2023-05-10T09:21:20;7.82;;;6.57;;
23304;SDS011;11821;51.456;8.844;2023-05-10T09:23:47;7.65;;;6.85;;
23304;SDS011;11821;51.456;8.844;2023-05-10T09:26:15;7.03;;;6.40;;
23304;SDS011;11821;51.456;8.844;2023-05-10T09:31:18;6.78;;;5.85;;
23304;SDS011;11821;51.456;8.844;2023-05-10T09:33:45;7.35;;;6.18;;
23304;SDS011;11821;51.456;8.844;2023-05-10T09:36:12;7.82;;;6.20;;
23304;SDS011;11821;51.456;8.844;2023-05-10T09:38:44;7.55;;;6.85;;
23304;SDS011;11821;51.456;8.844;2023-05-10T09:41:20;8.15;;;5.63;;
23304;SDS011;11821;51.456;8.844;2023-05-10T09:43:48;7.55;;;6.05;;
23304;SDS011;11821;51.456;8.844;2023-05-10T09:46:15;6.95;;;6.25;;
23304;SDS011;11821;51.456;8.844;2023-05-10T09:48:43;6.55;;;5.95;;
23304;SDS011;11821;51.456;8.844;2023-05-10T09:51:23;6.85;;;6.18;;
23304;SDS011;11821;51.456;8.844;2023-05-10T09:54:08;7.00;;;6.03;;
23304;SDS011;11821;51.456;8.844;2023-05-10T09:56:36;6.05;;;5.53;;
23304;SDS011;11821;51.456;8.844;2023-05-10T09:59:05;6.60;;;6.00;;
23304;SDS011;11821;51.456;8.844;2023-05-10T10:01:36;7.18;;;6.43;;
23304;SDS011;11821;51.456;8.844;2023-05-10T10:04:06;10.68;;;6.38;;
23304;SDS011;11821;51.456;8.844;2023-05-10T10:06:37;7.05;;;6.40;;
23304;SDS011;11821;51.456;8.844;2023-05-10T10:09:05;6.25;;;5.65;;
23304;SDS011;11821;51.456;8.844;2023-05-10T10:11:36;8.13;;;6.82;;
23304;SDS011;11821;51.456;8.844;2023-05-10T10:14:04;6.03;;;5.43;;
23304;SDS011;11821;51.456;8.844;2023-05-10T10:16:31;7.90;;;6.13;;
23304;SDS011;11821;51.456;8.844;2023-05-10T10:18:58;7.97;;;6.38;;
23304;SDS011;11821;51.456;8.844;2023-05-10T10:21:24;6.72;;;5.95;;
23304;SDS011;11821;51.456;8.844;2023-05-10T10:23:51;6.95;;;6.25;;
23304;SDS011;11821;51.456;8.844;2023-05-10T10:26:18;6.80;;;6.20;;
23304;SDS011;11821;51.456;8.844;2023-05-10T10:31:26;7.43;;;5.82;;
23304;SDS011;11821;51.456;8.844;2023-05-10T10:34:01;7.13;;;5.85;;
23304;SDS011;11821;51.456;8.844;2023-05-10T10:36:33;7.03;;;6.15;;
23304;SDS011;11821;51.456;8.844;2023-05-10T10:39:08;5.85;;;5.25;;
23304;SDS011;11821;51.456;8.844;2023-05-10T10:41:36;7.07;;;6.05;;
23304;SDS011;11821;51.456;8.844;2023-05-10T10:47:02;7.55;;;6.30;;
23304;SDS011;11821;51.456;8.844;2023-05-10T10:54:49;5.88;;;5.30;;
23304;SDS011;11821;51.456;8.844;2023-05-10T10:57:17;6.55;;;5.60;;
23304;SDS011;11821;51.456;8.844;2023-05-10T10:59:44;5.97;;;4.95;;
23304;SDS011;11821;51.456;8.844;2023-05-10T11:11:24;5.97;;;4.43;;
23304;SDS011;11821;51.456;8.844;2023-05-10T11:21:28;4.55;;;4.15;;
23304;SDS011;11821;51.456;8.844;2023-05-10T11:23:58;6.68;;;4.65;;
23304;SDS011;11821;51.456;8.844;2023-05-10T11:26:32;5.32;;;4.40;;
23304;SDS011;11821;51.456;8.844;2023-05-10T11:29:00;5.65;;;4.80;;
23304;SDS011;11821;51.456;8.844;2023-05-10T11:31:28;5.90;;;4.35;;
23304;SDS011;11821;51.456;8.844;2023-05-10T11:33:58;5.10;;;4.57;;
23304;SDS011;11821;51.456;8.844;2023-05-10T11:36:33;4.35;;;3.95;;
23304;SDS011;11821;51.456;8.844;2023-05-10T11:39:01;5.53;;;4.97;;
23304;SDS011;11821;51.456;8.844;2023-05-10T11:41:29;6.65;;;4.63;;
23304;SDS011;11821;51.456;8.844;2023-05-10T11:43:57;6.72;;;5.53;;
23304;SDS011;11821;51.456;8.844;2023-05-10T11:46:25;5.30;;;4.10;;
23304;SDS011;11821;51.456;8.844;2023-05-10T11:48:54;4.10;;;3.75;;
23304;SDS011;11821;51.456;8.844;2023-05-10T11:51:29;5.50;;;4.65;;
23304;SDS011;11821;51.456;8.844;2023-05-10T11:54:05;4.03;;;3.28;;
23304;SDS011;11821;51.456;8.844;2023-05-10T11:56:33;3.28;;;2.97;;
23304;SDS011;11821;51.456;8.844;2023-05-10T11:59:00;3.03;;;2.60;;
23304;SDS011;11821;51.456;8.844;2023-05-10T12:01:28;2.22;;;2.03;;
23304;SDS011;11821;51.456;8.844;2023-05-10T12:03:55;1.55;;;1.45;;
23304;SDS011;11821;51.456;8.844;2023-05-10T12:06:30;1.48;;;1.38;;
23304;SDS011;11821;51.456;8.844;2023-05-10T12:08:57;1.15;;;0.80;;
23304;SDS011;11821;51.456;8.844;2023-05-10T12:11:24;1.20;;;1.10;;
23304;SDS011;11821;51.456;8.844;2023-05-10T12:13:52;2.90;;;1.20;;
23304;SDS011;11821;51.456;8.844;2023-05-10T12:16:20;1.40;;;1.20;;
23304;SDS011;11821;51.456;8.844;2023-05-10T12:18:53;1.45;;;1.35;;
23304;SDS011;11821;51.456;8.844;2023-05-10T12:21:22;2.17;;;1.70;;
23304;SDS011;11821;51.456;8.844;2023-05-10T12:23:52;1.77;;;1.00;;
23304;SDS011;11821;51.456;8.844;2023-05-10T12:26:23;1.38;;;1.10;;
23304;SDS011;11821;51.456;8.844;2023-05-10T12:28:55;1.10;;;1.00;;
23304;SDS011;11821;51.456;8.844;2023-05-10T12:36:57;1.83;;;1.60;;
23304;SDS011;11821;51.456;8.844;2023-05-10T12:39:23;2.03;;;1.38;;
23304;SDS011;11821;51.456;8.844;2023-05-10T12:41:50;2.05;;;1.55;;
23304;SDS011;11821;51.456;8.844;2023-05-10T12:44:17;3.67;;;2.25;;
23304;SDS011;11821;51.456;8.844;2023-05-10T12:46:44;4.43;;;2.13;;
23304;SDS011;11821;51.456;8.844;2023-05-10T12:49:10;2.58;;;1.98;;
23304;SDS011;11821;51.456;8.844;2023-05-10T12:51:37;2.30;;;2.10;;
23304;SDS011;11821;51.456;8.844;2023-05-10T12:54:03;3.25;;;2.22;;
23304;SDS011;11821;51.456;8.844;2023-05-10T12:56:29;2.78;;;2.20;;
23304;SDS011;11821;51.456;8.844;2023-05-10T12:58:55;5.80;;;2.30;;
23304;SDS011;11821;51.456;8.844;2023-05-10T13:01:22;2.13;;;2.03;;
23304;SDS011;11821;51.456;8.844;2023-05-10T13:03:48;2.30;;;2.10;;
23304;SDS011;11821;51.456;8.844;2023-05-10T13:06:14;2.47;;;2.28;;
23304;SDS011;11821;51.456;8.844;2023-05-10T13:08:40;2.55;;;2.35;;
23304;SDS011;11821;51.456;8.844;2023-05-10T13:11:07;5.05;;;2.10;;
23304;SDS011;11821;51.456;8.844;2023-05-10T13:13:33;3.58;;;2.75;;
23304;SDS011;11821;51.456;8.844;2023-05-10T13:15:59;2.58;;;2.38;;
23304;SDS011;11821;51.456;8.844;2023-05-10T13:18:25;2.53;;;2.30;;
23304;SDS011;11821;51.456;8.844;2023-05-10T13:20:52;4.07;;;2.40;;
23304;SDS011;11821;51.456;8.844;2023-05-10T13:23:19;4.88;;;2.55;;
23304;SDS011;11821;51.456;8.844;2023-05-10T13:25:45;2.70;;;2.50;;
23304;SDS011;11821;51.456;8.844;2023-05-10T13:28:12;4.63;;;2.47;;
23304;SDS011;11821;51.456;8.844;2023-05-10T13:30:38;3.20;;;2.78;;
23304;SDS011;11821;51.456;8.844;2023-05-10T13:33:04;6.35;;;2.47;;
23304;SDS011;11821;51.456;8.844;2023-05-10T13:35:31;3.38;;;2.75;;
23304;SDS011;11821;51.456;8.844;2023-05-10T13:37:57;3.33;;;2.60;;
23304;SDS011;11821;51.456;8.844;2023-05-10T13:40:23;5.47;;;3.40;;
23304;SDS011;11821;51.456;8.844;2023-05-10T13:42:49;4.47;;;2.85;;
23304;SDS011;11821;51.456;8.844;2023-05-10T13:45:16;3.30;;;2.90;;
23304;SDS011;11821;51.456;8.844;2023-05-10T13:47:42;2.67;;;2.47;;
23304;SDS011;11821;51.456;8.844;2023-05-10T13:50:08;2.95;;;2.50;;
23304;SDS011;11821;51.456;8.844;2023-05-10T13:52:35;3.53;;;2.58;;
23304;SDS011;11821;51.456;8.844;2023-05-10T13:55:01;2.30;;;2.20;;
23304;SDS011;11821;51.456;8.844;2023-05-10T13:57:28;3.17;;;2.60;;
23304;SDS011;11821;51.456;8.844;2023-05-10T13:59:55;3.13;;;2.50;;
23304;SDS011;11821;51.456;8.844;2023-05-10T14:02:22;3.03;;;2.75;;
23304;SDS011;11821;51.456;8.844;2023-05-10T14:04:50;5.40;;;2.72;;
23304;SDS011;11821;51.456;8.844;2023-05-10T14:07:16;3.17;;;2.88;;
23304;SDS011;11821;51.456;8.844;2023-05-10T14:09:43;3.83;;;2.90;;
23304;SDS011;11821;51.456;8.844;2023-05-10T14:12:09;3.05;;;2.65;;
23304;SDS011;11821;51.456;8.844;2023-05-10T14:14:35;3.47;;;2.90;;
23304;SDS011;11821;51.456;8.844;2023-05-10T14:17:02;3.97;;;3.25;;
23304;SDS011;11821;51.456;8.844;2023-05-10T14:19:28;3.95;;;3.05;;
23304;SDS011;11821;51.456;8.844;2023-05-10T14:21:57;4.40;;;3.35;;
23304;SDS011;11821;51.456;8.844;2023-05-10T14:24:24;4.85;;;3.42;;
23304;SDS011;11821;51.456;8.844;2023-05-10T14:26:50;4.68;;;3.78;;
23304;SDS011;11821;51.456;8.844;2023-05-10T14:29:20;4.05;;;3.67;;
23304;SDS011;11821;51.456;8.844;2023-05-10T14:31:47;3.80;;;3.40;;
23304;SDS011;11821;51.456;8.844;2023-05-10T14:34:13;5.22;;;3.60;;
23304;SDS011;11821;51.456;8.844;2023-05-10T14:36:40;4.00;;;3.30;;
23304;SDS011;11821;51.456;8.844;2023-05-10T14:39:06;3.80;;;3.30;;
23304;SDS011;11821;51.456;8.844;2023-05-10T14:41:33;4.60;;;3.00;;
23304;SDS011;11821;51.456;8.844;2023-05-10T14:43:59;4.43;;;3.42;;
23304;SDS011;11821;51.456;8.844;2023-05-10T14:46:26;3.50;;;2.60;;
23304;SDS011;11821;51.456;8.844;2023-05-10T14:48:53;4.80;;;2.88;;
23304;SDS011;11821;51.456;8.844;2023-05-10T14:51:19;4.05;;;2.92;;
23304;SDS011;11821;51.456;8.844;2023-05-10T14:53:47;7.35;;;3.63;;
23304;SDS011;11821;51.456;8.844;2023-05-10T14:56:15;4.00;;;3.60;;
23304;SDS011;11821;51.456;8.844;2023-05-10T14:58:41;5.07;;;3.95;;
23304;SDS011;11821;51.456;8.844;2023-05-10T15:01:07;6.07;;;4.60;;
23304;SDS011;11821;51.456;8.844;2023-05-10T15:03:34;8.30;;;4.18;;
23304;SDS011;11821;51.456;8.844;2023-05-10T15:06:00;5.57;;;3.90;;
23304;SDS011;11821;51.456;8.844;2023-05-10T15:08:26;5.32;;;4.40;;
23304;SDS011;11821;51.456;8.844;2023-05-10T15:10:53;7.30;;;4.00;;
23304;SDS011;11821;51.456;8.844;2023-05-10T15:13:21;4.20;;;3.75;;
23304;SDS011;11821;51.456;8.844;2023-05-10T15:15:47;4.55;;;3.60;;
23304;SDS011;11821;51.456;8.844;2023-05-10T15:18:13;6.65;;;4.80;;
23304;SDS011;11821;51.456;8.844;2023-05-10T15:20:40;43.78;;;33.95;;
23304;SDS011;11821;51.456;8.844;2023-05-10T15:23:06;33.10;;;24.60;;
23304;SDS011;11821;51.456;8.844;2023-05-10T15:25:32;5.85;;;5.30;;
23304;SDS011;11821;51.456;8.844;2023-05-10T15:28:03;34.28;;;22.63;;
23304;SDS011;11821;51.456;8.844;2023-05-10T15:30:30;20.95;;;14.32;;
23304;SDS011;11821;51.456;8.844;2023-05-10T15:32:56;17.75;;;11.30;;
23304;SDS011;11821;51.456;8.844;2023-05-10T15:35:23;15.27;;;10.43;;
23304;SDS011;11821;51.456;8.844;2023-05-10T15:37:49;6.13;;;4.45;;
23304;SDS011;11821;51.456;8.844;2023-05-10T15:40:15;5.20;;;4.70;;
23304;SDS011;11821;51.456;8.844;2023-05-10T15:42:42;6.00;;;4.70;;
23304;SDS011;11821;51.456;8.844;2023-05-10T15:45:09;58.25;;;45.03;;
23304;SDS011;11821;51.456;8.844;2023-05-10T15:47:36;27.55;;;23.20;;